sensor_id;sensor_type;location;lat;lon;timestamp;temperature;humidity
5134;DHT22;2585;48.696;10.066;2023-07-13T00:00:47;16.00;93.50
5134;DHT22;2585;48.696;10.066;2023-07-13T00:03:14;16.00;93.50
5134;DHT22;2585;48.696;10.066;2023-07-13T00:05:42;15.90;93.50
5134;DHT22;2585;48.696;10.066;2023-07-13T00:08:09;15.90;93.50
5134;DHT22;2585;48.696;10.066;2023-07-13T00:10:41;15.80;93.40
5134;DHT22;2585;48.696;10.066;2023-07-13T00:13:09;15.90;93.50
5134;DHT22;2585;48.696;10.066;2023-07-13T00:15:36;15.90;93.50
5134;DHT22;2585;48.696;10.066;2023-07-13T00:18:02;15.80;93.40
5134;DHT22;2585;48.696;10.066;2023-07-13T00:20:29;15.80;93.40
5134;DHT22;2585;48.696;10.066;2023-07-13T00:22:56;15.80;93.40
5134;DHT22;2585;48.696;10.066;2023-07-13T00:25:25;15.80;93.40
5134;DHT22;2585;48.696;10.066;2023-07-13T00:27:55;15.70;93.40
5134;DHT22;2585;48.696;10.066;2023-07-13T00:30:22;15.70;93.40
5134;DHT22;2585;48.696;10.066;2023-07-13T00:32:49;15.60;93.40
5134;DHT22;2585;48.696;10.066;2023-07-13T00:35:30;15.50;93.40
5134;DHT22;2585;48.696;10.066;2023-07-13T00:37:57;15.50;93.40
5134;DHT22;2585;48.696;10.066;2023-07-13T00:40:24;15.60;93.40
5134;DHT22;2585;48.696;10.066;2023-07-13T00:42:52;15.60;93.40
5134;DHT22;2585;48.696;10.066;2023-07-13T00:47:46;15.50;93.40
5134;DHT22;2585;48.696;10.066;2023-07-13T00:50:15;15.40;93.30
5134;DHT22;2585;48.696;10.066;2023-07-13T00:52:47;15.40;93.30
5134;DHT22;2585;48.696;10.066;2023-07-13T00:55:15;15.40;93.30
5134;DHT22;2585;48.696;10.066;2023-07-13T00:57:43;15.40;93.30
5134;DHT22;2585;48.696;10.066;2023-07-13T01:00:11;15.30;93.30
5134;DHT22;2585;48.696;10.066;2023-07-13T01:02:41;15.30;93.30
5134;DHT22;2585;48.696;10.066;2023-07-13T01:05:27;15.20;93.30
5134;DHT22;2585;48.696;10.066;2023-07-13T01:07:54;15.20;93.30
5134;DHT22;2585;48.696;10.066;2023-07-13T01:10:23;15.10;93.20
5134;DHT22;2585;48.696;10.066;2023-07-13T01:12:50;15.00;93.20
5134;DHT22;2585;48.696;10.066;2023-07-13T01:15:40;15.10;93.20
5134;DHT22;2585;48.696;10.066;2023-07-13T01:18:13;15.00;93.20
5134;DHT22;2585;48.696;10.066;2023-07-13T01:20:46;14.90;93.20
5134;DHT22;2585;48.696;10.066;2023-07-13T01:23:14;14.80;93.10
5134;DHT22;2585;48.696;10.066;2023-07-13T01:25:40;14.70;93.10
5134;DHT22;2585;48.696;10.066;2023-07-13T01:28:08;14.80;93.10
5134;DHT22;2585;48.696;10.066;2023-07-13T01:30:36;14.70;93.10
5134;DHT22;2585;48.696;10.066;2023-07-13T01:33:04;14.70;93.10
5134;DHT22;2585;48.696;10.066;2023-07-13T01:35:31;14.60;93.10
5134;DHT22;2585;48.696;10.066;2023-07-13T01:37:58;14.70;93.10
5134;DHT22;2585;48.696;10.066;2023-07-13T01:40:27;14.70;93.00
5134;DHT22;2585;48.696;10.066;2023-07-13T01:42:54;14.70;93.00
5134;DHT22;2585;48.696;10.066;2023-07-13T01:45:22;14.70;93.00
5134;DHT22;2585;48.696;10.066;2023-07-13T01:47:49;14.70;93.00
5134;DHT22;2585;48.696;10.066;2023-07-13T01:50:16;14.70;93.00
5134;DHT22;2585;48.696;10.066;2023-07-13T01:52:43;14.60;93.00
5134;DHT22;2585;48.696;10.066;2023-07-13T01:55:09;14.50;92.90
5134;DHT22;2585;48.696;10.066;2023-07-13T01:57:36;14.50;93.00
5134;DHT22;2585;48.696;10.066;2023-07-13T02:00:06;14.40;92.90
5134;DHT22;2585;48.696;10.066;2023-07-13T02:02:33;14.30;92.90
5134;DHT22;2585;48.696;10.066;2023-07-13T02:05:00;14.40;92.90
5134;DHT22;2585;48.696;10.066;2023-07-13T02:07:27;14.30;92.80
5134;DHT22;2585;48.696;10.066;2023-07-13T02:09:54;14.60;92.70
5134;DHT22;2585;48.696;10.066;2023-07-13T02:12:21;14.60;92.70
5134;DHT22;2585;48.696;10.066;2023-07-13T02:14:47;14.50;92.70
5134;DHT22;2585;48.696;10.066;2023-07-13T02:17:14;14.40;92.60
5134;DHT22;2585;48.696;10.066;2023-07-13T02:19:41;14.40;92.70
5134;DHT22;2585;48.696;10.066;2023-07-13T02:22:08;14.40;92.70
5134;DHT22;2585;48.696;10.066;2023-07-13T02:24:35;14.30;92.70
5134;DHT22;2585;48.696;10.066;2023-07-13T02:27:02;14.20;92.70
5134;DHT22;2585;48.696;10.066;2023-07-13T02:29:29;14.00;92.70
5134;DHT22;2585;48.696;10.066;2023-07-13T02:31:56;14.10;92.70
5134;DHT22;2585;48.696;10.066;2023-07-13T02:34:22;14.10;92.70
5134;DHT22;2585;48.696;10.066;2023-07-13T02:36:49;14.00;92.70
5134;DHT22;2585;48.696;10.066;2023-07-13T02:39:16;14.00;92.70
5134;DHT22;2585;48.696;10.066;2023-07-13T02:41:43;13.90;92.60
5134;DHT22;2585;48.696;10.066;2023-07-13T02:44:13;13.90;92.60
5134;DHT22;2585;48.696;10.066;2023-07-13T02:46:40;13.80;92.60
5134;DHT22;2585;48.696;10.066;2023-07-13T02:49:07;13.70;92.60
5134;DHT22;2585;48.696;10.066;2023-07-13T02:51:33;13.70;92.60
5134;DHT22;2585;48.696;10.066;2023-07-13T02:54:02;13.60;92.60
5134;DHT22;2585;48.696;10.066;2023-07-13T02:56:30;13.60;92.60
5134;DHT22;2585;48.696;10.066;2023-07-13T02:58:57;13.60;92.60
5134;DHT22;2585;48.696;10.066;2023-07-13T03:01:24;13.60;92.60
5134;DHT22;2585;48.696;10.066;2023-07-13T03:03:52;13.50;92.50
5134;DHT22;2585;48.696;10.066;2023-07-13T03:06:20;13.50;92.50
5134;DHT22;2585;48.696;10.066;2023-07-13T03:08:48;13.40;92.50
5134;DHT22;2585;48.696;10.066;2023-07-13T03:11:18;13.40;92.50
5134;DHT22;2585;48.696;10.066;2023-07-13T03:13:46;13.30;92.50
5134;DHT22;2585;48.696;10.066;2023-07-13T03:16:14;13.40;92.50
5134;DHT22;2585;48.696;10.066;2023-07-13T03:18:47;13.30;92.50
5134;DHT22;2585;48.696;10.066;2023-07-13T03:21:14;13.20;92.50
5134;DHT22;2585;48.696;10.066;2023-07-13T03:23:41;13.10;92.50
5134;DHT22;2585;48.696;10.066;2023-07-13T03:26:10;13.10;92.50
5134;DHT22;2585;48.696;10.066;2023-07-13T03:28:38;13.10;92.50
5134;DHT22;2585;48.696;10.066;2023-07-13T03:31:29;13.10;92.50
5134;DHT22;2585;48.696;10.066;2023-07-13T03:33:57;13.00;92.50
5134;DHT22;2585;48.696;10.066;2023-07-13T03:36:28;13.00;92.50
5134;DHT22;2585;48.696;10.066;2023-07-13T03:38:58;13.00;92.50
5134;DHT22;2585;48.696;10.066;2023-07-13T03:41:26;12.90;92.50
5134;DHT22;2585;48.696;10.066;2023-07-13T03:43:53;12.90;92.50
5134;DHT22;2585;48.696;10.066;2023-07-13T03:46:20;12.80;92.50
5134;DHT22;2585;48.696;10.066;2023-07-13T03:48:47;12.80;92.50
5134;DHT22;2585;48.696;10.066;2023-07-13T03:51:15;12.80;92.50
5134;DHT22;2585;48.696;10.066;2023-07-13T03:53:44;12.70;92.50
5134;DHT22;2585;48.696;10.066;2023-07-13T03:56:12;12.70;92.50
5134;DHT22;2585;48.696;10.066;2023-07-13T03:58:43;12.80;92.50
5134;DHT22;2585;48.696;10.066;2023-07-13T04:01:11;12.70;92.50
5134;DHT22;2585;48.696;10.066;2023-07-13T04:03:38;12.70;92.50
5134;DHT22;2585;48.696;10.066;2023-07-13T04:06:07;12.70;92.50
5134;DHT22;2585;48.696;10.066;2023-07-13T04:08:36;12.70;92.50
5134;DHT22;2585;48.696;10.066;2023-07-13T04:11:05;12.70;92.60
5134;DHT22;2585;48.696;10.066;2023-07-13T04:13:31;12.70;92.60
5134;DHT22;2585;48.696;10.066;2023-07-13T04:15:58;12.70;92.60
5134;DHT22;2585;48.696;10.066;2023-07-13T04:18:25;12.80;92.60
5134;DHT22;2585;48.696;10.066;2023-07-13T04:20:52;12.80;92.60
5134;DHT22;2585;48.696;10.066;2023-07-13T04:23:19;13.00;92.60
5134;DHT22;2585;48.696;10.066;2023-07-13T04:25:47;13.20;92.70
5134;DHT22;2585;48.696;10.066;2023-07-13T04:28:16;13.30;92.70
5134;DHT22;2585;48.696;10.066;2023-07-13T04:30:46;13.40;92.70
5134;DHT22;2585;48.696;10.066;2023-07-13T04:33:13;13.50;92.70
5134;DHT22;2585;48.696;10.066;2023-07-13T04:35:40;13.50;92.70
5134;DHT22;2585;48.696;10.066;2023-07-13T04:38:07;13.60;92.80
5134;DHT22;2585;48.696;10.066;2023-07-13T04:40:33;13.60;92.80
5134;DHT22;2585;48.696;10.066;2023-07-13T04:43:00;13.70;92.80
5134;DHT22;2585;48.696;10.066;2023-07-13T04:45:27;13.80;92.80
5134;DHT22;2585;48.696;10.066;2023-07-13T04:47:54;13.80;92.80
5134;DHT22;2585;48.696;10.066;2023-07-13T04:50:21;13.80;92.80
5134;DHT22;2585;48.696;10.066;2023-07-13T04:52:53;13.90;92.80
5134;DHT22;2585;48.696;10.066;2023-07-13T04:55:20;14.00;92.70
5134;DHT22;2585;48.696;10.066;2023-07-13T04:57:47;14.20;92.60
5134;DHT22;2585;48.696;10.066;2023-07-13T05:00:14;14.40;91.90
5134;DHT22;2585;48.696;10.066;2023-07-13T05:02:44;14.50;92.00
5134;DHT22;2585;48.696;10.066;2023-07-13T05:05:12;14.60;92.40
5134;DHT22;2585;48.696;10.066;2023-07-13T05:07:39;14.60;92.60
5134;DHT22;2585;48.696;10.066;2023-07-13T05:10:07;14.70;92.70
5134;DHT22;2585;48.696;10.066;2023-07-13T05:12:34;14.80;92.80
5134;DHT22;2585;48.696;10.066;2023-07-13T05:15:01;14.80;92.80
5134;DHT22;2585;48.696;10.066;2023-07-13T05:17:28;14.90;92.90
5134;DHT22;2585;48.696;10.066;2023-07-13T05:19:55;14.90;92.80
5134;DHT22;2585;48.696;10.066;2023-07-13T05:22:22;15.00;92.90
5134;DHT22;2585;48.696;10.066;2023-07-13T05:24:49;15.00;92.90
5134;DHT22;2585;48.696;10.066;2023-07-13T05:27:16;15.10;93.00
5134;DHT22;2585;48.696;10.066;2023-07-13T05:29:43;15.20;93.00
5134;DHT22;2585;48.696;10.066;2023-07-13T05:32:10;15.20;93.00
5134;DHT22;2585;48.696;10.066;2023-07-13T05:34:37;15.30;93.00
5134;DHT22;2585;48.696;10.066;2023-07-13T05:37:04;15.30;93.00
5134;DHT22;2585;48.696;10.066;2023-07-13T05:39:31;15.40;93.00
5134;DHT22;2585;48.696;10.066;2023-07-13T05:41:58;15.40;93.00
5134;DHT22;2585;48.696;10.066;2023-07-13T05:44:25;15.50;93.00
5134;DHT22;2585;48.696;10.066;2023-07-13T05:46:51;15.40;92.90
5134;DHT22;2585;48.696;10.066;2023-07-13T05:49:18;15.40;92.80
5134;DHT22;2585;48.696;10.066;2023-07-13T05:51:45;15.50;92.70
5134;DHT22;2585;48.696;10.066;2023-07-13T05:54:12;15.50;92.20
5134;DHT22;2585;48.696;10.066;2023-07-13T05:56:39;15.60;92.10
5134;DHT22;2585;48.696;10.066;2023-07-13T05:59:05;15.80;92.50
5134;DHT22;2585;48.696;10.066;2023-07-13T06:01:32;15.90;92.70
5134;DHT22;2585;48.696;10.066;2023-07-13T06:03:59;15.90;92.70
5134;DHT22;2585;48.696;10.066;2023-07-13T06:06:27;15.90;92.10
5134;DHT22;2585;48.696;10.066;2023-07-13T06:08:53;16.00;91.90
5134;DHT22;2585;48.696;10.066;2023-07-13T06:11:23;16.20;92.30
5134;DHT22;2585;48.696;10.066;2023-07-13T06:13:50;16.30;92.40
5134;DHT22;2585;48.696;10.066;2023-07-13T06:16:17;16.40;92.60
5134;DHT22;2585;48.696;10.066;2023-07-13T06:18:45;16.50;92.70
5134;DHT22;2585;48.696;10.066;2023-07-13T06:21:14;16.40;92.60
5134;DHT22;2585;48.696;10.066;2023-07-13T06:23:42;16.40;80.80
5134;DHT22;2585;48.696;10.066;2023-07-13T06:26:10;16.40;24.00
5134;DHT22;2585;48.696;10.066;2023-07-13T06:28:37;16.40;93.00
5134;DHT22;2585;48.696;10.066;2023-07-13T06:31:06;16.40;56.90
5134;DHT22;2585;48.696;10.066;2023-07-13T06:33:33;16.40;83.20
5134;DHT22;2585;48.696;10.066;2023-07-13T06:36:02;16.50;1.00
5134;DHT22;2585;48.696;10.066;2023-07-13T06:38:29;16.60;1.00
5134;DHT22;2585;48.696;10.066;2023-07-13T06:40:56;16.80;1.00
5134;DHT22;2585;48.696;10.066;2023-07-13T06:43:23;17.10;1.00
5134;DHT22;2585;48.696;10.066;2023-07-13T06:45:54;17.30;1.00
5134;DHT22;2585;48.696;10.066;2023-07-13T06:48:20;17.50;1.00
5134;DHT22;2585;48.696;10.066;2023-07-13T06:50:49;17.70;75.10
5134;DHT22;2585;48.696;10.066;2023-07-13T06:53:17;17.80;84.40
5134;DHT22;2585;48.696;10.066;2023-07-13T06:55:45;17.90;1.00
5134;DHT22;2585;48.696;10.066;2023-07-13T06:58:13;18.20;1.00
5134;DHT22;2585;48.696;10.066;2023-07-13T07:00:39;18.30;1.00
5134;DHT22;2585;48.696;10.066;2023-07-13T07:03:07;18.40;1.00
5134;DHT22;2585;48.696;10.066;2023-07-13T07:05:34;18.70;60.10
5134;DHT22;2585;48.696;10.066;2023-07-13T07:08:01;18.60;1.00
5134;DHT22;2585;48.696;10.066;2023-07-13T07:10:30;19.20;1.00
5134;DHT22;2585;48.696;10.066;2023-07-13T07:12:57;19.40;69.20
5134;DHT22;2585;48.696;10.066;2023-07-13T07:15:24;19.30;62.30
5134;DHT22;2585;48.696;10.066;2023-07-13T07:17:51;19.70;1.00
5134;DHT22;2585;48.696;10.066;2023-07-13T07:20:18;19.70;1.00
5134;DHT22;2585;48.696;10.066;2023-07-13T07:22:47;19.70;1.00
5134;DHT22;2585;48.696;10.066;2023-07-13T07:25:14;19.40;1.00
5134;DHT22;2585;48.696;10.066;2023-07-13T07:27:41;19.00;90.10
5134;DHT22;2585;48.696;10.066;2023-07-13T07:30:11;19.20;90.10
5134;DHT22;2585;48.696;10.066;2023-07-13T07:32:41;19.50;67.90
5134;DHT22;2585;48.696;10.066;2023-07-13T07:35:23;19.80;79.00
5134;DHT22;2585;48.696;10.066;2023-07-13T07:37:50;19.90;63.60
5134;DHT22;2585;48.696;10.066;2023-07-13T07:40:18;19.90;15.40
5134;DHT22;2585;48.696;10.066;2023-07-13T07:42:47;19.70;1.00
5134;DHT22;2585;48.696;10.066;2023-07-13T07:45:14;19.20;1.00
5134;DHT22;2585;48.696;10.066;2023-07-13T07:47:42;19.30;1.00
5134;DHT22;2585;48.696;10.066;2023-07-13T07:50:09;19.50;1.00
5134;DHT22;2585;48.696;10.066;2023-07-13T07:52:36;19.90;1.00
5134;DHT22;2585;48.696;10.066;2023-07-13T07:55:04;20.20;1.00
5134;DHT22;2585;48.696;10.066;2023-07-13T07:57:35;20.00;1.00
5134;DHT22;2585;48.696;10.066;2023-07-13T08:00:05;19.70;1.00
5134;DHT22;2585;48.696;10.066;2023-07-13T08:02:35;19.50;1.00
5134;DHT22;2585;48.696;10.066;2023-07-13T08:05:05;19.90;1.00
5134;DHT22;2585;48.696;10.066;2023-07-13T08:07:36;20.00;93.30
5134;DHT22;2585;48.696;10.066;2023-07-13T08:10:08;20.50;1.00
5134;DHT22;2585;48.696;10.066;2023-07-13T08:12:36;20.50;92.50
5134;DHT22;2585;48.696;10.066;2023-07-13T08:15:10;20.40;84.80
5134;DHT22;2585;48.696;10.066;2023-07-13T08:17:38;20.40;84.70
5134;DHT22;2585;48.696;10.066;2023-07-13T08:20:05;20.60;75.40
5134;DHT22;2585;48.696;10.066;2023-07-13T08:22:32;20.60;71.60
5134;DHT22;2585;48.696;10.066;2023-07-13T08:24:59;20.80;64.90
5134;DHT22;2585;48.696;10.066;2023-07-13T08:27:27;21.20;66.50
5134;DHT22;2585;48.696;10.066;2023-07-13T08:29:54;21.20;58.80
5134;DHT22;2585;48.696;10.066;2023-07-13T08:32:22;21.20;56.30
5134;DHT22;2585;48.696;10.066;2023-07-13T08:34:50;21.30;38.40
5134;DHT22;2585;48.696;10.066;2023-07-13T08:37:17;21.60;48.00
5134;DHT22;2585;48.696;10.066;2023-07-13T08:39:44;21.50;16.90
5134;DHT22;2585;48.696;10.066;2023-07-13T08:47:21;21.90;2.30
5134;DHT22;2585;48.696;10.066;2023-07-13T08:49:49;21.90;1.00
5134;DHT22;2585;48.696;10.066;2023-07-13T08:54:54;22.40;1.00
5134;DHT22;2585;48.696;10.066;2023-07-13T08:57:27;22.90;1.00
5134;DHT22;2585;48.696;10.066;2023-07-13T08:59:58;23.10;1.00
5134;DHT22;2585;48.696;10.066;2023-07-13T09:05:14;23.40;1.00
5134;DHT22;2585;48.696;10.066;2023-07-13T09:10:31;23.50;1.00
5134;DHT22;2585;48.696;10.066;2023-07-13T09:13:02;23.90;1.00
5134;DHT22;2585;48.696;10.066;2023-07-13T09:15:42;24.30;1.00
5134;DHT22;2585;48.696;10.066;2023-07-13T09:18:11;24.50;1.00
5134;DHT22;2585;48.696;10.066;2023-07-13T09:20:48;24.90;1.00
5134;DHT22;2585;48.696;10.066;2023-07-13T09:23:19;25.00;1.00
5134;DHT22;2585;48.696;10.066;2023-07-13T09:25:50;25.20;1.00
5134;DHT22;2585;48.696;10.066;2023-07-13T09:28:27;25.40;1.00
5134;DHT22;2585;48.696;10.066;2023-07-13T09:33:32;25.00;1.00
5134;DHT22;2585;48.696;10.066;2023-07-13T09:36:05;25.10;1.00
5134;DHT22;2585;48.696;10.066;2023-07-13T09:38:41;25.50;1.00
5134;DHT22;2585;48.696;10.066;2023-07-13T09:44:10;25.90;95.70
5134;DHT22;2585;48.696;10.066;2023-07-13T09:46:43;26.20;94.30
5134;DHT22;2585;48.696;10.066;2023-07-13T09:49:11;25.70;91.60
5134;DHT22;2585;48.696;10.066;2023-07-13T09:51:42;25.40;90.90
5134;DHT22;2585;48.696;10.066;2023-07-13T09:54:21;25.50;90.50
5134;DHT22;2585;48.696;10.066;2023-07-13T09:56:55;24.90;90.00
5134;DHT22;2585;48.696;10.066;2023-07-13T09:59:26;25.10;89.20
5134;DHT22;2585;48.696;10.066;2023-07-13T10:01:53;25.30;88.40
5134;DHT22;2585;48.696;10.066;2023-07-13T10:04:36;25.90;88.10
5134;DHT22;2585;48.696;10.066;2023-07-13T10:07:12;26.00;85.10
5134;DHT22;2585;48.696;10.066;2023-07-13T10:09:57;26.10;81.50
5134;DHT22;2585;48.696;10.066;2023-07-13T10:12:25;26.50;81.70
5134;DHT22;2585;48.696;10.066;2023-07-13T10:14:57;26.80;81.10
5134;DHT22;2585;48.696;10.066;2023-07-13T10:17:45;26.10;77.60
5134;DHT22;2585;48.696;10.066;2023-07-13T10:20:12;26.30;76.60
5134;DHT22;2585;48.696;10.066;2023-07-13T10:23:15;26.40;77.30
5134;DHT22;2585;48.696;10.066;2023-07-13T10:25:46;26.10;74.20
5134;DHT22;2585;48.696;10.066;2023-07-13T10:28:37;26.80;75.90
5134;DHT22;2585;48.696;10.066;2023-07-13T10:31:12;26.60;73.50
5134;DHT22;2585;48.696;10.066;2023-07-13T10:33:40;26.70;73.20
5134;DHT22;2585;48.696;10.066;2023-07-13T10:36:12;27.10;72.70
5134;DHT22;2585;48.696;10.066;2023-07-13T10:38:45;26.40;70.60
5134;DHT22;2585;48.696;10.066;2023-07-13T10:41:19;26.70;72.30
5134;DHT22;2585;48.696;10.066;2023-07-13T10:43:50;26.70;72.10
5134;DHT22;2585;48.696;10.066;2023-07-13T10:46:20;26.50;71.20
5134;DHT22;2585;48.696;10.066;2023-07-13T10:48:52;25.80;68.50
5134;DHT22;2585;48.696;10.066;2023-07-13T10:51:21;26.00;69.90
5134;DHT22;2585;48.696;10.066;2023-07-13T10:54:21;26.40;68.80
5134;DHT22;2585;48.696;10.066;2023-07-13T10:56:52;26.20;67.90
5134;DHT22;2585;48.696;10.066;2023-07-13T10:59:25;25.90;66.70
5134;DHT22;2585;48.696;10.066;2023-07-13T11:04:27;25.60;65.20
5134;DHT22;2585;48.696;10.066;2023-07-13T11:07:23;25.80;65.90
5134;DHT22;2585;48.696;10.066;2023-07-13T11:09:53;26.80;66.50
5134;DHT22;2585;48.696;10.066;2023-07-13T11:22:50;27.80;63.70
5134;DHT22;2585;48.696;10.066;2023-07-13T11:30:39;27.00;61.30
5134;DHT22;2585;48.696;10.066;2023-07-13T11:41:02;26.80;60.70
5134;DHT22;2585;48.696;10.066;2023-07-13T11:43:30;27.30;61.30
5134;DHT22;2585;48.696;10.066;2023-07-13T11:46:16;27.30;60.00
5134;DHT22;2585;48.696;10.066;2023-07-13T11:48:47;27.00;59.20
5134;DHT22;2585;48.696;10.066;2023-07-13T11:51:22;27.20;61.80
5134;DHT22;2585;48.696;10.066;2023-07-13T11:53:51;27.90;61.80
5134;DHT22;2585;48.696;10.066;2023-07-13T11:56:23;28.00;61.90
5134;DHT22;2585;48.696;10.066;2023-07-13T11:58:56;28.40;60.50
5134;DHT22;2585;48.696;10.066;2023-07-13T12:01:29;28.30;60.20
5134;DHT22;2585;48.696;10.066;2023-07-13T12:04:04;28.20;54.70
5134;DHT22;2585;48.696;10.066;2023-07-13T12:06:34;28.50;57.00
5134;DHT22;2585;48.696;10.066;2023-07-13T12:09:10;27.60;56.00
5134;DHT22;2585;48.696;10.066;2023-07-13T12:11:43;26.80;50.00
5134;DHT22;2585;48.696;10.066;2023-07-13T12:14:16;27.00;54.70
5134;DHT22;2585;48.696;10.066;2023-07-13T12:16:45;27.80;59.20
5134;DHT22;2585;48.696;10.066;2023-07-13T12:19:27;28.10;58.10
5134;DHT22;2585;48.696;10.066;2023-07-13T12:21:57;27.70;54.30
5134;DHT22;2585;48.696;10.066;2023-07-13T12:24:25;27.70;50.80
5134;DHT22;2585;48.696;10.066;2023-07-13T12:27:01;27.60;48.60
5134;DHT22;2585;48.696;10.066;2023-07-13T12:29:29;27.20;50.10
5134;DHT22;2585;48.696;10.066;2023-07-13T12:31:56;27.20;53.30
5134;DHT22;2585;48.696;10.066;2023-07-13T12:34:25;28.30;56.70
5134;DHT22;2585;48.696;10.066;2023-07-13T12:37:01;28.70;54.30
5134;DHT22;2585;48.696;10.066;2023-07-13T12:39:37;27.60;46.90
5134;DHT22;2585;48.696;10.066;2023-07-13T12:42:23;27.70;53.20
5134;DHT22;2585;48.696;10.066;2023-07-13T12:45:19;27.50;44.60
5134;DHT22;2585;48.696;10.066;2023-07-13T12:47:53;27.80;46.00
5134;DHT22;2585;48.696;10.066;2023-07-13T12:50:23;28.40;48.40
5134;DHT22;2585;48.696;10.066;2023-07-13T12:52:56;28.60;49.70
5134;DHT22;2585;48.696;10.066;2023-07-13T12:55:24;28.80;49.10
5134;DHT22;2585;48.696;10.066;2023-07-13T12:57:54;28.60;42.80
5134;DHT22;2585;48.696;10.066;2023-07-13T13:00:31;28.50;43.00
5134;DHT22;2585;48.696;10.066;2023-07-13T13:08:34;29.70;48.00
5134;DHT22;2585;48.696;10.066;2023-07-13T13:11:02;28.30;39.00
5134;DHT22;2585;48.696;10.066;2023-07-13T13:13:29;27.40;35.00
5134;DHT22;2585;48.696;10.066;2023-07-13T13:15:56;26.70;37.30
5134;DHT22;2585;48.696;10.066;2023-07-13T13:18:27;27.50;43.50
5134;DHT22;2585;48.696;10.066;2023-07-13T13:20:56;27.60;39.60
5134;DHT22;2585;48.696;10.066;2023-07-13T13:23:22;26.60;34.90
5134;DHT22;2585;48.696;10.066;2023-07-13T13:25:50;26.90;35.40
5134;DHT22;2585;48.696;10.066;2023-07-13T13:28:19;26.90;36.50
5134;DHT22;2585;48.696;10.066;2023-07-13T13:30:49;27.60;38.30
5134;DHT22;2585;48.696;10.066;2023-07-13T13:33:20;28.00;36.70
5134;DHT22;2585;48.696;10.066;2023-07-13T13:35:48;28.20;38.00
5134;DHT22;2585;48.696;10.066;2023-07-13T13:38:17;28.60;37.60
5134;DHT22;2585;48.696;10.066;2023-07-13T13:40:46;28.10;33.60
5134;DHT22;2585;48.696;10.066;2023-07-13T13:43:21;28.50;35.40
5134;DHT22;2585;48.696;10.066;2023-07-13T13:45:56;28.70;35.30
5134;DHT22;2585;48.696;10.066;2023-07-13T13:48:31;28.80;35.50
5134;DHT22;2585;48.696;10.066;2023-07-13T13:50:59;28.50;31.10
5134;DHT22;2585;48.696;10.066;2023-07-13T13:53:26;28.50;33.60
5134;DHT22;2585;48.696;10.066;2023-07-13T13:55:53;28.30;34.00
5134;DHT22;2585;48.696;10.066;2023-07-13T13:58:21;28.30;35.60
5134;DHT22;2585;48.696;10.066;2023-07-13T14:00:48;28.60;36.30
5134;DHT22;2585;48.696;10.066;2023-07-13T14:03:20;28.90;35.10
5134;DHT22;2585;48.696;10.066;2023-07-13T14:05:48;29.10;34.40
5134;DHT22;2585;48.696;10.066;2023-07-13T14:08:20;28.60;32.00
5134;DHT22;2585;48.696;10.066;2023-07-13T14:10:54;28.30;32.70
5134;DHT22;2585;48.696;10.066;2023-07-13T14:13:28;28.40;32.70
5134;DHT22;2585;48.696;10.066;2023-07-13T14:15:57;28.50;30.60
5134;DHT22;2585;48.696;10.066;2023-07-13T14:18:26;28.70;30.90
5134;DHT22;2585;48.696;10.066;2023-07-13T14:20:52;28.60;29.00
5134;DHT22;2585;48.696;10.066;2023-07-13T14:23:20;28.70;29.30
5134;DHT22;2585;48.696;10.066;2023-07-13T14:25:47;28.50;28.70
5134;DHT22;2585;48.696;10.066;2023-07-13T14:30:48;28.00;31.50
5134;DHT22;2585;48.696;10.066;2023-07-13T14:33:15;28.00;29.90
5134;DHT22;2585;48.696;10.066;2023-07-13T14:35:42;28.10;28.80
5134;DHT22;2585;48.696;10.066;2023-07-13T14:38:13;27.90;28.80
5134;DHT22;2585;48.696;10.066;2023-07-13T14:40:40;27.70;28.60
5134;DHT22;2585;48.696;10.066;2023-07-13T14:43:14;27.50;28.50
5134;DHT22;2585;48.696;10.066;2023-07-13T14:45:45;28.20;31.80
5134;DHT22;2585;48.696;10.066;2023-07-13T14:50:41;28.20;31.00
5134;DHT22;2585;48.696;10.066;2023-07-13T14:53:12;27.90;29.70
5134;DHT22;2585;48.696;10.066;2023-07-13T14:55:39;27.70;29.30
5134;DHT22;2585;48.696;10.066;2023-07-13T14:58:06;27.10;28.30
5134;DHT22;2585;48.696;10.066;2023-07-13T15:00:33;26.80;29.70
5134;DHT22;2585;48.696;10.066;2023-07-13T15:03:00;26.80;29.90
5134;DHT22;2585;48.696;10.066;2023-07-13T15:05:30;27.00;29.60
5134;DHT22;2585;48.696;10.066;2023-07-13T15:08:00;26.70;27.40
5134;DHT22;2585;48.696;10.066;2023-07-13T15:10:29;26.60;29.30
5134;DHT22;2585;48.696;10.066;2023-07-13T15:13:20;27.30;32.20
5134;DHT22;2585;48.696;10.066;2023-07-13T15:15:51;27.20;28.80
5134;DHT22;2585;48.696;10.066;2023-07-13T15:18:23;27.50;31.80
5134;DHT22;2585;48.696;10.066;2023-07-13T15:20:52;27.30;28.80
5134;DHT22;2585;48.696;10.066;2023-07-13T15:23:19;27.10;27.00
5134;DHT22;2585;48.696;10.066;2023-07-13T15:25:46;27.00;27.40
5134;DHT22;2585;48.696;10.066;2023-07-13T15:28:13;26.70;27.10
5134;DHT22;2585;48.696;10.066;2023-07-13T15:30:47;26.60;27.80
5134;DHT22;2585;48.696;10.066;2023-07-13T15:35:44;26.40;25.00
5134;DHT22;2585;48.696;10.066;2023-07-13T15:38:19;26.30;26.60
5134;DHT22;2585;48.696;10.066;2023-07-13T15:40:48;26.40;25.90
5134;DHT22;2585;48.696;10.066;2023-07-13T15:43:15;26.40;26.40
5134;DHT22;2585;48.696;10.066;2023-07-13T15:45:43;26.10;26.30
5134;DHT22;2585;48.696;10.066;2023-07-13T15:48:21;25.90;26.20
5134;DHT22;2585;48.696;10.066;2023-07-13T15:50:51;25.50;28.00
5134;DHT22;2585;48.696;10.066;2023-07-13T15:53:24;24.80;22.50
5134;DHT22;2585;48.696;10.066;2023-07-13T15:55:52;24.40;22.70
5134;DHT22;2585;48.696;10.066;2023-07-13T15:58:19;24.30;24.90
5134;DHT22;2585;48.696;10.066;2023-07-13T16:00:48;24.30;25.30
5134;DHT22;2585;48.696;10.066;2023-07-13T16:03:21;24.10;27.00
5134;DHT22;2585;48.696;10.066;2023-07-13T16:05:49;24.40;27.90
5134;DHT22;2585;48.696;10.066;2023-07-13T16:08:25;24.60;24.70
5134;DHT22;2585;48.696;10.066;2023-07-13T16:10:53;24.60;24.20
5134;DHT22;2585;48.696;10.066;2023-07-13T16:13:21;24.60;24.50
5134;DHT22;2585;48.696;10.066;2023-07-13T16:15:48;24.70;25.00
5134;DHT22;2585;48.696;10.066;2023-07-13T16:18:15;24.60;24.70
5134;DHT22;2585;48.696;10.066;2023-07-13T16:20:46;24.60;26.40
5134;DHT22;2585;48.696;10.066;2023-07-13T16:23:15;24.50;25.10
5134;DHT22;2585;48.696;10.066;2023-07-13T16:25:43;24.40;24.40
5134;DHT22;2585;48.696;10.066;2023-07-13T16:28:12;24.20;24.40
5134;DHT22;2585;48.696;10.066;2023-07-13T16:30:39;24.10;24.30
5134;DHT22;2585;48.696;10.066;2023-07-13T16:33:06;24.00;23.40
5134;DHT22;2585;48.696;10.066;2023-07-13T16:35:37;23.80;23.50
5134;DHT22;2585;48.696;10.066;2023-07-13T16:38:15;23.60;23.10
5134;DHT22;2585;48.696;10.066;2023-07-13T16:40:42;23.50;23.70
5134;DHT22;2585;48.696;10.066;2023-07-13T16:43:12;23.50;24.60
5134;DHT22;2585;48.696;10.066;2023-07-13T16:45:40;23.40;25.30
5134;DHT22;2585;48.696;10.066;2023-07-13T16:48:18;23.30;23.50
5134;DHT22;2585;48.696;10.066;2023-07-13T16:50:53;23.40;23.20
5134;DHT22;2585;48.696;10.066;2023-07-13T16:53:30;23.30;25.00
5134;DHT22;2585;48.696;10.066;2023-07-13T16:56:00;23.30;28.80
5134;DHT22;2585;48.696;10.066;2023-07-13T16:58:29;23.10;27.00
5134;DHT22;2585;48.696;10.066;2023-07-13T17:01:00;23.10;25.10
5134;DHT22;2585;48.696;10.066;2023-07-13T17:03:31;23.00;24.20